createdAt,value
2023-10-20T00:00:30.608Z,8.19
2023-10-20T00:02:57.969Z,8.17
2023-10-20T00:05:25.277Z,8.16
2023-10-20T00:07:54.692Z,8.14
2023-10-20T00:10:22.220Z,8.12
2023-10-20T00:12:50.230Z,8.11
2023-10-20T00:15:21.312Z,8.09
2023-10-20T00:17:48.854Z,8.09
2023-10-20T00:20:16.333Z,8.09
2023-10-20T00:22:43.671Z,8.08
2023-10-20T00:25:13.682Z,8.09
2023-10-20T00:27:42.700Z,8.09
2023-10-20T00:30:10.944Z,8.09
2023-10-20T00:32:41.837Z,8.08
2023-10-20T00:35:10.818Z,8.09
2023-10-20T00:37:38.412Z,8.09
2023-10-20T00:40:09.027Z,8.11
2023-10-20T00:42:37.236Z,8.11
2023-10-20T00:45:05.416Z,8.09
2023-10-20T00:47:33.391Z,8.12
2023-10-20T00:50:01.039Z,8.11
2023-10-20T00:52:30.350Z,8.12
2023-10-20T00:54:58.378Z,8.14
2023-10-20T00:57:27.979Z,8.14
2023-10-20T00:59:55.323Z,8.14
2023-10-20T01:02:22.838Z,8.16
2023-10-20T01:04:50.244Z,8.17
2023-10-20T01:07:17.469Z,8.17
2023-10-20T01:09:45.000Z,8.17
2023-10-20T01:12:12.545Z,8.17
2023-10-20T01:14:40.103Z,8.17
2023-10-20T01:17:07.514Z,8.16
2023-10-20T01:19:34.848Z,8.16
2023-10-20T01:22:02.128Z,8.15
2023-10-20T01:24:31.253Z,8.14
2023-10-20T01:27:00.239Z,8.13
2023-10-20T01:29:27.785Z,8.11
2023-10-20T01:31:55.113Z,8.10
2023-10-20T01:34:22.998Z,8.09
2023-10-20T01:36:50.405Z,8.07
2023-10-20T01:39:17.760Z,8.07
2023-10-20T01:41:45.253Z,8.08
2023-10-20T01:44:14.552Z,8.08
2023-10-20T01:46:50.834Z,8.08
2023-10-20T01:49:21.251Z,8.08
2023-10-20T01:51:48.617Z,8.06
2023-10-20T01:54:15.886Z,8.04
2023-10-20T01:56:43.217Z,8.05
2023-10-20T01:59:10.861Z,8.05
2023-10-20T02:01:40.043Z,8.06
2023-10-20T02:04:07.312Z,8.07
2023-10-20T02:06:34.959Z,8.07
2023-10-20T02:09:03.135Z,8.08
2023-10-20T02:11:30.598Z,8.09
2023-10-20T02:13:58.597Z,8.08
2023-10-20T02:16:26.038Z,8.08
2023-10-20T02:18:53.363Z,8.05
2023-10-20T02:21:20.954Z,8.05
2023-10-20T02:23:48.330Z,7.99
2023-10-20T02:26:18.298Z,8.03
2023-10-20T02:28:45.732Z,8.04
2023-10-20T02:31:19.146Z,8.03
2023-10-20T02:33:46.911Z,8.00
2023-10-20T02:36:18.453Z,7.98
2023-10-20T02:38:46.210Z,7.97
2023-10-20T02:41:15.366Z,7.96
2023-10-20T02:43:42.968Z,7.94
2023-10-20T02:46:10.950Z,7.93
2023-10-20T02:48:38.415Z,7.91
2023-10-20T02:51:09.232Z,7.90
2023-10-20T02:53:36.540Z,7.88
2023-10-20T02:56:10.347Z,7.87
2023-10-20T02:58:37.612Z,7.86
2023-10-20T03:01:06.836Z,7.85
2023-10-20T03:03:34.717Z,7.84
2023-10-20T03:06:03.331Z,7.83
2023-10-20T03:08:31.502Z,7.84
2023-10-20T03:10:58.873Z,7.87
2023-10-20T03:13:26.950Z,7.88
2023-10-20T03:15:55.389Z,7.89
2023-10-20T03:18:22.703Z,7.90
2023-10-20T03:20:50.163Z,7.89
2023-10-20T03:23:18.189Z,7.90
2023-10-20T03:25:45.461Z,7.91
2023-10-20T03:28:12.804Z,7.92
2023-10-20T03:30:43.324Z,7.93
2023-10-20T03:33:14.869Z,7.92
2023-10-20T03:35:42.334Z,7.94
2023-10-20T03:38:10.448Z,7.94
2023-10-20T03:40:39.242Z,7.94
2023-10-20T03:43:07.950Z,7.95
2023-10-20T03:45:50.666Z,7.94
2023-10-20T03:48:18.249Z,7.94
2023-10-20T03:50:47.742Z,7.93
2023-10-20T03:53:28.365Z,7.94
2023-10-20T03:56:02.782Z,7.92
2023-10-20T03:58:30.726Z,7.92
2023-10-20T04:00:59.018Z,7.93
2023-10-20T04:03:29.315Z,7.92
2023-10-20T04:05:56.747Z,7.91
2023-10-20T04:08:24.498Z,7.92
2023-10-20T04:10:58.040Z,7.92
2023-10-20T04:13:25.461Z,7.91
2023-10-20T04:15:54.040Z,7.90
2023-10-20T04:18:21.861Z,7.89
2023-10-20T04:20:52.147Z,7.88
2023-10-20T04:23:19.671Z,7.86
2023-10-20T04:25:56.590Z,7.87
2023-10-20T04:28:34.505Z,7.87
2023-10-20T04:31:20.503Z,7.88
2023-10-20T04:34:06.138Z,7.87
2023-10-20T04:36:51.845Z,7.87
2023-10-20T04:39:37.908Z,7.88
2023-10-20T04:42:23.571Z,7.89
2023-10-20T04:45:19.656Z,7.88
2023-10-20T04:48:06.091Z,7.86
2023-10-20T04:50:52.067Z,7.84
2023-10-20T04:53:37.866Z,7.87
2023-10-20T04:56:17.398Z,7.89
2023-10-20T04:58:50.648Z,7.89
2023-10-20T05:01:22.500Z,7.87
2023-10-20T05:03:54.923Z,7.87
2023-10-20T05:06:26.927Z,7.86
2023-10-20T05:08:54.807Z,7.87
2023-10-20T05:11:22.168Z,7.89
2023-10-20T05:13:49.494Z,7.91
2023-10-20T05:16:17.386Z,7.90
2023-10-20T05:18:45.967Z,7.92
2023-10-20T05:21:13.655Z,7.94
2023-10-20T05:23:42.390Z,7.98
2023-10-20T05:26:10.593Z,8.00
2023-10-20T05:28:38.102Z,7.99
2023-10-20T05:31:05.495Z,7.99
2023-10-20T05:33:32.962Z,7.98
2023-10-20T05:36:00.872Z,8.00
2023-10-20T05:38:28.369Z,7.99
2023-10-20T05:40:59.686Z,8.02
2023-10-20T05:43:28.115Z,8.06
2023-10-20T05:45:55.648Z,8.09
2023-10-20T05:48:23.001Z,8.11
2023-10-20T05:50:55.503Z,8.13
2023-10-20T05:53:22.880Z,8.15
2023-10-20T05:55:50.241Z,8.19
2023-10-20T05:58:17.549Z,8.23
2023-10-20T06:01:01.817Z,8.29
2023-10-20T06:03:30.421Z,8.32
2023-10-20T06:06:01.849Z,8.34
2023-10-20T06:08:30.485Z,8.37
2023-10-20T06:11:04.845Z,8.42
2023-10-20T06:13:37.070Z,8.41
2023-10-20T06:16:09.946Z,8.43
2023-10-20T06:18:38.127Z,8.41
2023-10-20T06:21:06.028Z,8.43
2023-10-20T06:23:34.372Z,8.46
2023-10-20T06:26:01.688Z,8.50
2023-10-20T06:28:29.068Z,8.57
2023-10-20T06:31:02.072Z,8.59
2023-10-20T06:33:35.830Z,8.66
2023-10-20T06:36:12.469Z,8.71
2023-10-20T06:38:45.956Z,8.78
2023-10-20T06:41:16.488Z,8.81
2023-10-20T06:43:44.860Z,8.77
2023-10-20T06:46:12.264Z,8.75
2023-10-20T06:48:39.738Z,8.76
2023-10-20T06:51:07.060Z,8.82
2023-10-20T06:53:35.332Z,8.87
2023-10-20T06:56:15.059Z,8.87
2023-10-20T06:58:43.189Z,8.88
2023-10-20T07:01:10.591Z,8.86
2023-10-20T07:03:38.008Z,8.86
2023-10-20T07:06:08.622Z,8.85
2023-10-20T07:08:36.238Z,8.81
2023-10-20T07:11:06.289Z,8.79
2023-10-20T07:13:33.778Z,8.85
2023-10-20T07:16:02.031Z,8.91
2023-10-20T07:18:29.700Z,8.93
2023-10-20T07:20:58.432Z,8.91
2023-10-20T07:23:26.617Z,8.97
2023-10-20T07:25:54.771Z,9.08
2023-10-20T07:28:23.214Z,9.17
2023-10-20T07:30:51.174Z,9.25
2023-10-20T07:33:18.657Z,9.26
2023-10-20T07:35:46.169Z,9.30
2023-10-20T07:38:18.526Z,9.41
2023-10-20T07:40:46.187Z,9.47
2023-10-20T07:43:13.513Z,9.54
2023-10-20T07:45:42.003Z,9.58
2023-10-20T07:48:10.157Z,9.59
2023-10-20T07:50:37.837Z,9.59
2023-10-20T07:53:05.291Z,9.63
2023-10-20T07:55:32.602Z,9.68
2023-10-20T07:57:59.985Z,9.71
2023-10-20T08:00:27.407Z,9.77
2023-10-20T08:02:56.072Z,9.90
2023-10-20T08:05:27.330Z,10.09
2023-10-20T08:07:55.343Z,10.32
2023-10-20T08:10:25.195Z,10.50
2023-10-20T08:12:52.798Z,10.60
2023-10-20T08:15:20.713Z,10.60
2023-10-20T08:17:49.753Z,10.55
2023-10-20T08:20:17.818Z,10.52
2023-10-20T08:22:45.209Z,10.53
2023-10-20T08:25:12.849Z,10.54
2023-10-20T08:27:40.686Z,10.54
2023-10-20T08:30:08.510Z,10.53
2023-10-20T08:32:36.247Z,10.48
2023-10-20T08:35:04.855Z,10.45
2023-10-20T08:37:32.249Z,10.40
2023-10-20T08:39:59.565Z,10.36
2023-10-20T08:42:26.964Z,10.35
2023-10-20T08:44:54.488Z,10.32
2023-10-20T08:47:23.780Z,10.35
2023-10-20T08:49:52.121Z,10.39
2023-10-20T08:52:19.705Z,10.34
2023-10-20T08:54:49.269Z,10.28
2023-10-20T08:57:16.787Z,10.22
2023-10-20T08:59:51.991Z,10.15
2023-10-20T09:02:20.156Z,10.09
2023-10-20T09:04:53.360Z,9.98
2023-10-20T09:07:23.117Z,9.92
2023-10-20T09:09:50.918Z,9.85
2023-10-20T09:12:18.177Z,9.82
2023-10-20T09:14:45.653Z,9.78
2023-10-20T09:17:26.195Z,9.75
2023-10-20T09:20:04.203Z,9.65
2023-10-20T09:22:31.602Z,9.57
2023-10-20T09:24:58.903Z,9.50
2023-10-20T09:27:26.551Z,9.42
2023-10-20T09:29:55.633Z,9.39
2023-10-20T09:32:23.194Z,9.31
2023-10-20T09:34:52.371Z,9.26
2023-10-20T09:37:24.596Z,9.20
2023-10-20T09:39:54.114Z,9.18
2023-10-20T09:42:25.156Z,9.15
2023-10-20T09:45:03.760Z,9.09
2023-10-20T09:47:32.057Z,9.02
2023-10-20T09:50:01.194Z,8.97
2023-10-20T09:52:30.945Z,8.93
2023-10-20T09:54:58.829Z,8.99
2023-10-20T09:57:27.933Z,9.02
2023-10-20T09:59:55.738Z,9.01
2023-10-20T10:02:30.363Z,8.99
2023-10-20T10:04:58.675Z,8.94
2023-10-20T10:07:27.536Z,8.88
2023-10-20T10:09:56.365Z,8.80
2023-10-20T10:12:25.155Z,8.69
2023-10-20T10:15:04.457Z,8.64
2023-10-20T10:17:31.870Z,8.66
2023-10-20T10:20:00.296Z,8.64
2023-10-20T10:22:28.934Z,8.58
2023-10-20T10:24:56.934Z,8.52
2023-10-20T10:27:31.053Z,8.49
2023-10-20T10:30:02.794Z,8.49
2023-10-20T10:32:35.737Z,8.52
2023-10-20T10:35:05.550Z,8.62
2023-10-20T10:37:34.662Z,8.72
2023-10-20T10:40:15.605Z,8.75
2023-10-20T10:42:44.306Z,8.84
2023-10-20T10:45:15.216Z,8.95
2023-10-20T10:47:44.794Z,9.11
2023-10-20T10:50:12.422Z,9.31
2023-10-20T10:52:40.354Z,9.49
2023-10-20T10:55:07.878Z,9.53
2023-10-20T10:57:36.416Z,9.54
2023-10-20T11:00:04.908Z,9.53
2023-10-20T11:02:32.890Z,9.50
2023-10-20T11:05:01.434Z,9.44
2023-10-20T11:07:28.876Z,9.35
2023-10-20T11:09:56.482Z,9.24
2023-10-20T11:12:23.805Z,9.17
2023-10-20T11:14:52.061Z,9.18
2023-10-20T11:17:20.429Z,9.18
2023-10-20T11:19:48.036Z,9.19
2023-10-20T11:22:16.986Z,9.22
2023-10-20T11:24:51.768Z,9.22
2023-10-20T11:27:19.936Z,9.20
2023-10-20T11:29:58.340Z,9.18
2023-10-20T11:32:27.528Z,9.14
2023-10-20T11:34:55.051Z,9.17
2023-10-20T11:37:22.479Z,9.19
2023-10-20T11:39:50.063Z,9.26
2023-10-20T11:42:17.677Z,9.29
2023-10-20T11:44:44.967Z,9.31
2023-10-20T11:47:12.308Z,9.33
2023-10-20T11:49:39.820Z,9.30
2023-10-20T11:52:09.834Z,9.27
2023-10-20T11:54:37.495Z,9.23
2023-10-20T11:57:04.835Z,9.16
2023-10-20T11:59:32.359Z,9.14
2023-10-20T12:01:59.834Z,9.13
2023-10-20T12:04:27.334Z,9.11
2023-10-20T12:06:54.735Z,9.11
2023-10-20T12:09:22.205Z,9.10
2023-10-20T12:11:49.562Z,9.10
2023-10-20T12:14:16.894Z,9.05
2023-10-20T12:16:44.406Z,8.99
2023-10-20T12:19:12.265Z,8.94
2023-10-20T12:21:39.874Z,8.91
2023-10-20T12:24:07.392Z,8.86
2023-10-20T12:26:34.819Z,8.88
2023-10-20T12:29:02.131Z,8.88
2023-10-20T12:31:32.286Z,8.88
2023-10-20T12:33:59.909Z,8.86
2023-10-20T12:36:32.582Z,8.83
2023-10-20T12:39:01.703Z,8.78
2023-10-20T12:41:29.302Z,8.70
2023-10-20T12:43:56.622Z,8.59
2023-10-20T12:46:24.100Z,8.52
2023-10-20T12:48:52.121Z,8.42
2023-10-20T12:51:20.320Z,8.36
2023-10-20T12:53:47.908Z,8.30
2023-10-20T12:56:15.235Z,8.22
2023-10-20T12:58:42.726Z,8.14
2023-10-20T13:01:10.935Z,8.08
2023-10-20T13:03:39.635Z,8.04
2023-10-20T13:06:08.162Z,8.04
2023-10-20T13:08:35.745Z,7.98
2023-10-20T13:11:03.217Z,7.91
2023-10-20T13:13:33.813Z,7.87
2023-10-20T13:16:03.553Z,7.79
2023-10-20T13:18:32.205Z,7.69
2023-10-20T13:21:02.766Z,7.62
2023-10-20T13:23:30.313Z,7.56
2023-10-20T13:26:01.462Z,7.55
2023-10-20T13:28:28.760Z,7.52
2023-10-20T13:31:09.297Z,7.56
2023-10-20T13:33:37.499Z,7.59
2023-10-20T13:36:05.890Z,7.60
2023-10-20T13:38:33.959Z,7.61
2023-10-20T13:41:01.274Z,7.60
2023-10-20T13:43:28.524Z,7.60
2023-10-20T13:45:55.998Z,7.60
2023-10-20T13:48:23.401Z,7.59
2023-10-20T13:50:51.088Z,7.57
2023-10-20T13:53:18.349Z,7.55
2023-10-20T13:55:46.157Z,7.49
2023-10-20T13:58:13.495Z,7.47
2023-10-20T14:00:41.285Z,7.48
2023-10-20T14:03:09.155Z,7.53
2023-10-20T14:05:36.802Z,7.50
2023-10-20T14:08:04.242Z,7.47
2023-10-20T14:10:32.426Z,7.44
2023-10-20T14:12:59.838Z,7.38
2023-10-20T14:15:27.114Z,7.40
2023-10-20T14:17:54.599Z,7.36
2023-10-20T14:20:22.164Z,7.34
2023-10-20T14:22:49.640Z,7.27
2023-10-20T14:25:17.059Z,7.29
2023-10-20T14:27:44.352Z,7.23
2023-10-20T14:30:11.981Z,7.23
2023-10-20T14:32:39.469Z,7.21
2023-10-20T14:35:08.091Z,7.20
2023-10-20T14:37:35.504Z,7.19
2023-10-20T14:40:02.912Z,7.18
2023-10-20T14:42:30.349Z,7.16
2023-10-20T14:44:57.689Z,7.12
2023-10-20T14:47:27.014Z,7.11
2023-10-20T14:49:55.275Z,7.13
2023-10-20T14:52:22.558Z,7.15
2023-10-20T14:54:50.369Z,7.16
2023-10-20T14:57:17.730Z,7.17
2023-10-20T14:59:45.155Z,7.16
2023-10-20T15:02:12.572Z,7.09
2023-10-20T15:04:40.195Z,6.98
2023-10-20T15:07:07.933Z,6.90
2023-10-20T15:09:35.774Z,6.85
2023-10-20T15:12:03.519Z,6.85
2023-10-20T15:14:31.030Z,6.89
2023-10-20T15:16:58.557Z,6.85
2023-10-20T15:19:26.148Z,6.79
2023-10-20T15:21:53.843Z,6.76
2023-10-20T15:24:21.413Z,6.77
2023-10-20T15:26:49.073Z,6.76
2023-10-20T15:29:16.772Z,6.77
2023-10-20T15:31:44.681Z,6.76
2023-10-20T15:34:11.997Z,6.75
2023-10-20T15:36:47.580Z,6.67
2023-10-20T15:39:16.070Z,6.57
2023-10-20T15:41:43.486Z,6.55
2023-10-20T15:44:11.137Z,6.49
2023-10-20T15:46:38.615Z,6.48
2023-10-20T15:49:06.069Z,6.47
2023-10-20T15:51:33.392Z,6.50
2023-10-20T15:54:00.985Z,6.52
2023-10-20T15:56:29.231Z,6.49
2023-10-20T15:58:56.762Z,6.42
2023-10-20T16:01:26.450Z,6.35
2023-10-20T16:03:54.174Z,6.34
2023-10-20T16:06:21.536Z,6.33
2023-10-20T16:08:48.972Z,6.30
2023-10-20T16:11:16.382Z,6.33
2023-10-20T16:13:43.704Z,6.31
2023-10-20T16:16:11.601Z,6.32
2023-10-20T16:18:39.177Z,6.30
2023-10-20T16:21:06.593Z,6.29
2023-10-20T16:23:34.019Z,6.25
2023-10-20T16:26:03.396Z,6.19
2023-10-20T16:28:30.739Z,6.20
2023-10-20T16:31:01.473Z,6.20
2023-10-20T16:33:29.055Z,6.23
2023-10-20T16:35:56.992Z,6.25
2023-10-20T16:38:24.529Z,6.22
2023-10-20T16:40:53.044Z,6.23
2023-10-20T16:43:20.380Z,6.21
2023-10-20T16:45:48.346Z,6.19
2023-10-20T16:48:15.953Z,6.15
2023-10-20T16:50:44.001Z,6.12
2023-10-20T16:53:14.125Z,6.09
2023-10-20T16:55:41.714Z,6.11
2023-10-20T16:58:09.140Z,6.05
2023-10-20T17:00:37.314Z,6.03
2023-10-20T17:03:06.660Z,6.04
2023-10-20T17:05:37.027Z,6.02
2023-10-20T17:08:04.488Z,6.04
2023-10-20T17:10:31.711Z,6.06
2023-10-20T17:12:59.031Z,6.10
2023-10-20T17:15:26.284Z,6.13
2023-10-20T17:17:53.716Z,6.11
2023-10-20T17:20:21.294Z,6.10
2023-10-20T17:22:48.836Z,6.12
2023-10-20T17:25:16.224Z,6.13
2023-10-20T17:27:43.642Z,6.10
2023-10-20T17:30:11.801Z,6.08
2023-10-20T17:32:39.697Z,6.01
2023-10-20T17:35:07.480Z,5.97
2023-10-20T17:37:34.724Z,5.92
2023-10-20T17:40:02.358Z,5.91
2023-10-20T17:42:30.981Z,5.93
2023-10-20T17:44:58.402Z,5.97
2023-10-20T17:47:27.528Z,5.98
2023-10-20T17:49:55.055Z,6.02
2023-10-20T17:52:22.511Z,6.04
2023-10-20T17:54:50.870Z,6.08
2023-10-20T17:57:18.147Z,6.07
2023-10-20T17:59:45.537Z,6.10
2023-10-20T18:02:12.855Z,6.12
2023-10-20T18:04:40.319Z,6.11
2023-10-20T18:07:07.580Z,6.08
2023-10-20T18:09:35.112Z,6.08
2023-10-20T18:12:02.495Z,6.06
2023-10-20T18:14:30.409Z,6.04
2023-10-20T18:16:58.078Z,6.02
2023-10-20T18:19:25.475Z,6.00
2023-10-20T18:21:52.733Z,6.00
2023-10-20T18:24:20.053Z,6.00
2023-10-20T18:26:47.696Z,5.96
2023-10-20T18:29:15.061Z,5.92
2023-10-20T18:31:42.398Z,5.90
2023-10-20T18:34:10.797Z,5.90
2023-10-20T18:36:38.877Z,5.90
2023-10-20T18:39:06.314Z,5.83
2023-10-20T18:41:33.888Z,5.76
2023-10-20T18:44:01.189Z,5.76
2023-10-20T18:46:28.523Z,5.75
2023-10-20T18:48:55.806Z,5.75
2023-10-20T18:51:23.152Z,5.76
2023-10-20T18:53:50.517Z,5.72
2023-10-20T18:56:17.942Z,5.72
2023-10-20T18:58:47.528Z,5.72
2023-10-20T19:01:15.125Z,5.71
2023-10-20T19:03:42.801Z,5.69
2023-10-20T19:06:10.335Z,5.65
2023-10-20T19:08:39.134Z,5.64
2023-10-20T19:11:09.314Z,5.66
2023-10-20T19:13:37.066Z,5.68
2023-10-20T19:16:06.062Z,5.72
2023-10-20T19:18:33.841Z,5.71
2023-10-20T19:21:02.754Z,5.75
2023-10-20T19:23:31.021Z,5.81
2023-10-20T19:26:02.521Z,5.85
2023-10-20T19:28:30.817Z,5.88
2023-10-20T19:31:01.755Z,5.89
2023-10-20T19:33:30.522Z,5.88
2023-10-20T19:36:08.923Z,5.87
2023-10-20T19:38:36.533Z,5.84
2023-10-20T19:41:03.866Z,5.81
2023-10-20T19:43:31.253Z,5.81
2023-10-20T19:45:59.096Z,5.83
2023-10-20T19:48:26.694Z,5.81
2023-10-20T19:50:54.329Z,5.80
2023-10-20T19:53:22.325Z,5.80
2023-10-20T19:55:49.645Z,5.80
2023-10-20T19:58:17.315Z,5.80
2023-10-20T20:00:45.706Z,5.82
2023-10-20T20:03:13.328Z,5.84
2023-10-20T20:05:40.718Z,5.88
2023-10-20T20:08:08.719Z,5.90
2023-10-20T20:10:36.240Z,5.90
2023-10-20T20:13:04.781Z,5.93
2023-10-20T20:15:32.263Z,5.93
2023-10-20T20:17:59.744Z,5.88
2023-10-20T20:20:27.107Z,5.88
2023-10-20T20:22:54.495Z,5.92
2023-10-20T20:25:21.862Z,5.98
2023-10-20T20:27:49.262Z,5.97
2023-10-20T20:30:16.772Z,5.95
2023-10-20T20:32:44.678Z,5.94
2023-10-20T20:35:12.240Z,5.91
2023-10-20T20:37:39.553Z,5.89
2023-10-20T20:40:08.978Z,5.88
2023-10-20T20:42:36.789Z,5.90
2023-10-20T20:45:04.489Z,5.94
2023-10-20T20:47:32.038Z,5.95
2023-10-20T20:49:59.589Z,5.95
2023-10-20T20:52:26.952Z,5.92
2023-10-20T20:54:56.604Z,5.91
2023-10-20T20:57:24.320Z,5.88
2023-10-20T20:59:51.664Z,5.85
2023-10-20T21:02:19.052Z,5.87
2023-10-20T21:04:46.467Z,5.90
2023-10-20T21:07:13.966Z,5.94
2023-10-20T21:09:41.186Z,5.92
2023-10-20T21:12:08.676Z,5.95
2023-10-20T21:14:36.134Z,5.93
2023-10-20T21:17:03.869Z,5.90
2023-10-20T21:19:31.205Z,5.86
2023-10-20T21:21:58.582Z,5.86
2023-10-20T21:24:25.837Z,5.90
2023-10-20T21:26:56.605Z,5.89
2023-10-20T21:29:26.347Z,5.92
2023-10-20T21:31:54.285Z,5.92
2023-10-20T21:34:21.718Z,5.87
2023-10-20T21:36:49.119Z,5.81
2023-10-20T21:39:16.849Z,5.78
2023-10-20T21:41:44.141Z,5.77
2023-10-20T21:44:11.659Z,5.75
2023-10-20T21:46:39.630Z,5.75
2023-10-20T21:49:07.552Z,5.76
2023-10-20T21:51:35.425Z,5.75
2023-10-20T21:54:03.342Z,5.77
2023-10-20T21:56:30.650Z,5.80
2023-10-20T21:58:57.924Z,5.71
2023-10-20T22:01:25.216Z,5.71
2023-10-20T22:03:52.611Z,5.73
2023-10-20T22:06:20.016Z,5.72
2023-10-20T22:08:47.523Z,5.74
2023-10-20T22:11:15.278Z,5.74
2023-10-20T22:13:42.644Z,5.72
2023-10-20T22:16:09.974Z,5.65
2023-10-20T22:18:37.461Z,5.63
2023-10-20T22:21:04.807Z,5.61
2023-10-20T22:23:32.193Z,5.61
2023-10-20T22:25:59.416Z,5.60
2023-10-20T22:28:26.773Z,5.59
2023-10-20T22:30:54.233Z,5.58
2023-10-20T22:33:21.838Z,5.55
2023-10-20T22:35:49.267Z,5.55
2023-10-20T22:38:16.666Z,5.55
2023-10-20T22:40:44.101Z,5.55
2023-10-20T22:43:11.482Z,5.51
2023-10-20T22:45:42.073Z,5.48
2023-10-20T22:48:09.515Z,5.49
2023-10-20T22:50:36.922Z,5.53
2023-10-20T22:53:04.508Z,5.57
2023-10-20T22:55:31.887Z,5.60
2023-10-20T22:57:59.179Z,5.58
2023-10-20T23:00:26.603Z,5.55
2023-10-20T23:02:53.962Z,5.52
2023-10-20T23:05:23.302Z,5.50
2023-10-20T23:07:51.290Z,5.45
2023-10-20T23:10:18.593Z,5.42
2023-10-20T23:12:46.121Z,5.43
2023-10-20T23:15:13.602Z,5.44
2023-10-20T23:17:41.223Z,5.45
2023-10-20T23:20:08.925Z,5.45
2023-10-20T23:22:36.418Z,5.44
2023-10-20T23:25:04.231Z,5.44
2023-10-20T23:27:31.677Z,5.44
2023-10-20T23:29:59.037Z,5.42
2023-10-20T23:32:26.565Z,5.38
2023-10-20T23:34:54.760Z,5.37
2023-10-20T23:37:22.145Z,5.31
2023-10-20T23:39:49.528Z,5.32
2023-10-20T23:42:16.955Z,5.25
2023-10-20T23:44:44.375Z,5.25
2023-10-20T23:47:11.749Z,5.27
2023-10-20T23:49:40.087Z,5.23
2023-10-20T23:52:07.580Z,5.21
2023-10-20T23:54:34.940Z,5.20
2023-10-20T23:57:02.313Z,5.21
2023-10-20T23:59:29.638Z,5.24
